Time;durP1;ratioP1;P1;durP2;ratioP2;P2;SDS_P1;SDS_P2;PMS_P1;PMS_P2;Temp;Humidity;BMP_temperature;BMP_pressure;BME280_temperature;BME280_humidity;BME280_pressure;Samples;Min_cycle;Max_cycle;Signal;HPM_P1;HPM_P2
2021/06/01 00:01:23;;;;;;;3.45;0.90;;;13.80;67.40;;;;;;5058926;28;20452;-68
2021/06/01 00:03:49;;;;;;;5.15;0.93;;;13.70;67.10;;;;;;5055976;28;20032;-68
2021/06/01 00:06:15;;;;;;;3.45;0.90;;;13.70;66.90;;;;;;5054114;28;20101;-67
2021/06/01 00:08:40;;;;;;;3.60;0.88;;;13.70;67.80;;;;;;5056136;28;20764;-68
2021/06/01 00:11:07;;;;;;;4.00;1.08;;;13.70;66.40;;;;;;5038581;28;20032;-69
2021/06/01 00:13:33;;;;;;;3.67;1.25;;;13.70;65.80;;;;;;5058979;28;20024;-68
2021/06/01 00:16:00;;;;;;;2.00;1.02;;;13.80;65.50;;;;;;5058060;28;20017;-68
2021/06/01 00:18:26;;;;;;;3.00;0.90;;;13.90;65.60;;;;;;5048229;28;20320;-69
2021/06/01 00:20:52;;;;;;;2.58;1.10;;;13.80;65.50;;;;;;5057932;28;20021;-69
2021/06/01 00:23:17;;;;;;;2.83;0.90;;;13.80;65.20;;;;;;5058829;28;20032;-67
2021/06/01 00:25:43;;;;;;;2.88;0.95;;;13.80;65.10;;;;;;5036933;28;20028;-68
2021/06/01 00:28:09;;;;;;;2.67;0.90;;;13.80;65.40;;;;;;5057717;28;20382;-68
2021/06/01 00:30:34;;;;;;;3.45;0.88;;;13.80;65.30;;;;;;5057770;28;20036;-69
2021/06/01 00:33:00;;;;;;;3.40;0.90;;;13.80;65.50;;;;;;5054163;28;20060;-68
2021/06/01 00:35:26;;;;;;;4.90;0.90;;;13.70;65.80;;;;;;5055672;28;20076;-69
2021/06/01 00:37:51;;;;;;;7.05;0.80;;;13.70;66.10;;;;;;5055583;28;20024;-69
2021/06/01 00:40:17;;;;;;;2.85;1.00;;;13.60;67.10;;;;;;5056677;28;20029;-69
2021/06/01 00:42:42;;;;;;;2.45;1.00;;;13.60;67.90;;;;;;5056214;28;20056;-69
2021/06/01 00:45:09;;;;;;;12.95;1.15;;;13.40;68.00;;;;;;5058564;28;20028;-69
2021/06/01 00:47:34;;;;;;;2.03;0.77;;;13.40;68.10;;;;;;5055547;28;21111;-68
2021/06/01 00:50:00;;;;;;;2.45;0.90;;;13.40;67.80;;;;;;5054459;28;21379;-69
2021/06/01 00:52:25;;;;;;;2.25;0.80;;;13.40;67.70;;;;;;5059324;28;20045;-69
2021/06/01 00:54:51;;;;;;;3.25;0.70;;;13.40;67.90;;;;;;5038622;28;20038;-68
2021/06/01 00:57:16;;;;;;;4.68;1.05;;;13.50;68.50;;;;;;5058074;28;20075;-68
2021/06/01 00:59:42;;;;;;;3.35;1.13;;;13.50;68.40;;;;;;5056479;28;20037;-68
2021/06/01 01:02:07;;;;;;;4.35;0.80;;;13.50;68.80;;;;;;5055709;28;20032;-69
2021/06/01 01:04:34;;;;;;;1.58;0.70;;;13.40;69.20;;;;;;5038800;28;20025;-69
2021/06/01 01:07:18;;;;;;;3.85;1.05;;;13.30;69.80;;;;;;5054882;28;20044;-68
2021/06/01 01:09:45;;;;;;;3.15;0.73;;;13.20;70.60;;;;;;5056386;28;20032;-69
2021/06/01 01:12:26;;;;;;;3.75;1.00;;;13.10;71.00;;;;;;5059629;28;20032;-68
2021/06/01 01:14:59;;;;;;;4.57;0.88;;;13.10;71.30;;;;;;5062367;28;20045;-68
2021/06/01 01:17:35;;;;;;;2.20;0.90;;;13.00;70.80;;;;;;5060728;28;20461;-68
2021/06/01 01:20:19;;;;;;;3.15;1.00;;;13.00;71.30;;;;;;5059471;28;20028;-69
2021/06/01 01:22:48;;;;;;;2.22;0.82;;;13.00;71.20;;;;;;5059489;28;20024;-68
2021/06/01 01:25:23;;;;;;;6.72;1.40;;;12.90;71.40;;;;;;5060724;28;20029;-69
2021/06/01 01:28:06;;;;;;;5.40;1.40;;;12.90;71.70;;;;;;5040625;28;20033;-68
2021/06/01 01:30:37;;;;;;;3.28;0.90;;;12.80;72.20;;;;;;5039727;28;20044;-69
2021/06/01 01:33:24;;;;;;;1.77;0.80;;;12.80;71.70;;;;;;5059309;28;20045;-68
2021/06/01 01:36:00;;;;;;;4.30;1.00;;;12.80;71.80;;;;;;5058654;28;20048;-69
2021/06/01 01:38:27;;;;;;;3.33;0.90;;;12.70;71.80;;;;;;5060424;28;20035;-69
2021/06/01 01:40:57;;;;;;;2.65;0.80;;;12.70;72.30;;;;;;5059297;28;20041;-69
2021/06/01 01:43:29;;;;;;;3.15;0.80;;;12.70;72.30;;;;;;5059536;28;20055;-69
2021/06/01 01:46:04;;;;;;;2.53;1.00;;;12.60;72.30;;;;;;5059645;28;20482;-69
2021/06/01 01:51:18;;;;;;;3.10;1.10;;;12.60;72.90;;;;;;5059656;28;20113;-68
2021/06/01 01:53:53;;;;;;;4.30;0.93;;;12.50;73.70;;;;;;5038691;28;20710;-68
2021/06/01 01:56:21;;;;;;;2.05;0.70;;;12.40;74.10;;;;;;5050080;28;20501;-69
2021/06/01 01:58:52;;;;;;;2.00;0.73;;;12.40;74.10;;;;;;5057655;28;20032;-69
2021/06/01 02:01:18;;;;;;;3.55;0.90;;;12.30;74.40;;;;;;5058680;28;20425;-68
2021/06/01 02:03:44;;;;;;;2.83;0.68;;;12.30;74.60;;;;;;5038942;28;20467;-69
2021/06/01 02:06:10;;;;;;;3.85;0.98;;;12.30;74.50;;;;;;5051410;28;20036;-68
2021/06/01 02:08:43;;;;;;;3.55;1.13;;;12.20;74.80;;;;;;5058210;28;20448;-68
2021/06/01 02:11:10;;;;;;;2.30;1.38;;;12.20;75.20;;;;;;5059109;28;20090;-68
2021/06/01 02:13:44;;;;;;;2.22;0.85;;;12.10;75.40;;;;;;5061407;28;20108;-68
2021/06/01 02:16:10;;;;;;;5.95;0.93;;;12.10;75.40;;;;;;5059215;28;20111;-69
2021/06/01 02:18:36;;;;;;;2.20;0.73;;;12.00;75.70;;;;;;5058205;28;20058;-68
2021/06/01 02:21:05;;;;;;;2.03;0.73;;;12.00;75.30;;;;;;5056712;28;20132;-69
2021/06/01 02:23:49;;;;;;;4.38;1.10;;;12.00;75.70;;;;;;5059439;28;20016;-68
2021/06/01 02:26:39;;;;;;;2.95;1.10;;;12.00;76.10;;;;;;5057512;28;20043;-69
2021/06/01 02:29:12;;;;;;;2.40;0.90;;;11.90;75.80;;;;;;5010956;28;20375;-68
2021/06/01 02:31:45;;;;;;;3.85;1.00;;;11.90;76.00;;;;;;5059259;28;20124;-69
2021/06/01 02:34:13;;;;;;;3.50;1.00;;;11.80;76.30;;;;;;5040954;28;20396;-69
2021/06/01 02:36:40;;;;;;;2.20;0.90;;;11.80;76.00;;;;;;5017639;28;20113;-69
2021/06/01 02:39:05;;;;;;;2.58;0.93;;;11.80;76.60;;;;;;5018589;28;20040;-68
2021/06/01 02:41:32;;;;;;;3.20;1.02;;;11.80;76.80;;;;;;5018985;28;20025;-68
2021/06/01 02:43:59;;;;;;;2.55;1.00;;;11.70;77.20;;;;;;5017185;28;20107;-71
2021/06/01 02:46:25;;;;;;;4.82;1.10;;;11.70;77.40;;;;;;5019959;28;20095;-69
2021/06/01 02:48:52;;;;;;;2.30;1.00;;;11.60;77.20;;;;;;5016576;28;20480;-68
2021/06/01 02:51:19;;;;;;;2.30;1.00;;;11.60;77.30;;;;;;5020158;28;20254;-70
2021/06/01 02:53:49;;;;;;;5.85;1.15;;;11.60;77.30;;;;;;5017631;28;20043;-68
2021/06/01 02:56:16;;;;;;;2.67;0.98;;;11.60;77.40;;;;;;5017245;28;20503;-69
2021/06/01 02:58:43;;;;;;;3.33;1.00;;;11.60;77.40;;;;;;5034843;28;20032;-68
2021/06/01 03:01:17;;;;;;;4.63;1.02;;;11.60;77.40;;;;;;5019328;28;20086;-69
2021/06/01 03:03:48;;;;;;;4.43;0.82;;;11.60;77.20;;;;;;5017361;28;20038;-69
2021/06/01 03:06:18;;;;;;;2.30;0.90;;;11.60;76.80;;;;;;5017445;28;20396;-69
2021/06/01 03:08:44;;;;;;;2.92;1.30;;;11.70;76.80;;;;;;5009998;28;20032;-69
2021/06/01 03:11:11;;;;;;;2.95;1.40;;;11.80;76.70;;;;;;5019007;28;20033;-69
2021/06/01 03:13:37;;;;;;;4.07;1.10;;;11.80;76.40;;;;;;5016822;28;20034;-68
2021/06/01 03:16:03;;;;;;;5.15;1.50;;;11.90;76.40;;;;;;5019177;28;20029;-68
2021/06/01 03:18:30;;;;;;;2.70;1.33;;;11.90;76.20;;;;;;5016452;28;20029;-69
2021/06/01 03:20:56;;;;;;;2.92;1.13;;;11.90;75.80;;;;;;5017631;28;20057;-68
2021/06/01 03:23:26;;;;;;;3.05;1.55;;;12.00;75.60;;;;;;5019833;28;20037;-69
2021/06/01 03:25:52;;;;;;;3.83;1.25;;;11.90;75.70;;;;;;5016680;28;20111;-68
2021/06/01 03:28:19;;;;;;;2.38;1.27;;;11.90;76.00;;;;;;5027603;28;20116;-68
2021/06/01 03:30:47;;;;;;;4.20;1.48;;;11.90;75.80;;;;;;5016197;28;20022;-69
2021/06/01 03:33:12;;;;;;;2.65;1.63;;;11.90;76.10;;;;;;5025509;28;20034;-69
2021/06/01 03:35:38;;;;;;;3.95;1.35;;;11.80;76.60;;;;;;5054617;28;20456;-69
2021/06/01 03:38:04;;;;;;;2.63;1.17;;;11.80;77.20;;;;;;5055618;28;20538;-68
2021/06/01 03:40:30;;;;;;;4.32;1.48;;;11.80;76.70;;;;;;5058211;28;20013;-69
2021/06/01 03:42:55;;;;;;;2.85;1.50;;;11.70;77.00;;;;;;5057790;28;20074;-69
2021/06/01 03:45:23;;;;;;;3.78;1.40;;;11.60;77.20;;;;;;5055602;28;20024;-69
2021/06/01 03:47:48;;;;;;;4.05;1.73;;;11.60;77.60;;;;;;5057828;28;20032;-69
2021/06/01 03:50:14;;;;;;;3.75;1.60;;;11.60;78.00;;;;;;5057762;28;20078;-69
2021/06/01 03:52:43;;;;;;;5.93;1.75;;;11.50;78.30;;;;;;5058477;28;20032;-68
2021/06/01 03:55:09;;;;;;;2.92;1.85;;;11.40;78.50;;;;;;5054613;28;20033;-68
2021/06/01 03:57:35;;;;;;;7.60;2.55;;;11.40;79.00;;;;;;5054242;28;20125;-67
2021/06/01 04:00:01;;;;;;;5.25;1.73;;;11.30;79.30;;;;;;5055253;28;20085;-69
2021/06/01 04:02:26;;;;;;;5.53;1.95;;;11.30;79.70;;;;;;5034768;28;20143;-68
2021/06/01 04:04:52;;;;;;;3.80;2.15;;;11.20;79.90;;;;;;5056788;28;20025;-67
2021/06/01 04:07:18;;;;;;;4.18;2.03;;;11.20;80.20;;;;;;5055312;28;20028;-67
2021/06/01 04:09:44;;;;;;;4.13;2.17;;;11.20;80.50;;;;;;5057155;28;20119;-67
2021/06/01 04:12:11;;;;;;;3.47;2.08;;;11.20;80.80;;;;;;5055735;28;20176;-67
2021/06/01 04:14:37;;;;;;;3.55;2.10;;;11.10;81.00;;;;;;5055775;28;20538;-68
2021/06/01 04:17:03;;;;;;;3.35;1.52;;;11.10;81.50;;;;;;5030392;28;20036;-68
2021/06/01 04:19:29;;;;;;;8.85;2.65;;;11.10;81.90;;;;;;5055516;28;20036;-68
2021/06/01 04:21:54;;;;;;;3.72;1.85;;;11.10;82.10;;;;;;5057560;28;20028;-68
2021/06/01 04:24:21;;;;;;;6.85;2.13;;;11.20;82.30;;;;;;5054197;28;20071;-68
2021/06/01 04:26:46;;;;;;;6.70;2.42;;;11.10;82.40;;;;;;5057276;28;20032;-68
2021/06/01 04:29:12;;;;;;;3.35;1.88;;;11.10;82.40;;;;;;5054423;28;20244;-68
2021/06/01 04:31:40;;;;;;;4.35;2.03;;;11.20;82.30;;;;;;5053942;28;20036;-68
2021/06/01 04:34:06;;;;;;;13.95;2.17;;;11.20;82.30;;;;;;5061725;28;20036;-68
2021/06/01 04:36:31;;;;;;;5.07;2.13;;;11.20;82.20;;;;;;5065748;28;20033;-68
2021/06/01 04:38:57;;;;;;;4.72;1.88;;;11.30;82.40;;;;;;5064664;28;20429;-68
2021/06/01 04:41:22;;;;;;;3.35;2.00;;;11.30;82.50;;;;;;5064153;28;20021;-68
2021/06/01 04:43:48;;;;;;;5.03;2.40;;;11.40;82.70;;;;;;5062808;28;20079;-68
2021/06/01 04:46:13;;;;;;;4.50;2.10;;;11.40;82.60;;;;;;5065696;28;20036;-67
2021/06/01 04:48:39;;;;;;;3.80;2.15;;;11.50;82.80;;;;;;5067962;28;20036;-68
2021/06/01 04:51:04;;;;;;;3.47;2.20;;;11.60;82.70;;;;;;5075337;28;20089;-68
2021/06/01 04:53:30;;;;;;;4.55;2.08;;;11.80;83.10;;;;;;5072424;28;20733;-68
2021/06/01 04:55:56;;;;;;;4.28;2.13;;;12.10;83.60;;;;;;5059760;28;20062;-68
2021/06/01 04:58:21;;;;;;;3.17;1.30;;;12.60;83.50;;;;;;5066957;28;20032;-68
2021/06/01 05:00:47;;;;;;;4.00;1.50;;;13.20;83.00;;;;;;5071430;28;20059;-68
2021/06/01 05:03:13;;;;;;;5.95;1.70;;;13.80;82.10;;;;;;5075320;28;20048;-68
2021/06/01 05:05:38;;;;;;;5.60;1.30;;;14.30;80.60;;;;;;5074834;28;20029;-68
2021/06/01 05:08:04;;;;;;;3.28;1.42;;;14.90;79.20;;;;;;5070778;28;20028;-68
2021/06/01 05:10:30;;;;;;;5.97;1.38;;;15.30;77.60;;;;;;5061520;28;20021;-68
2021/06/01 05:12:55;;;;;;;3.85;1.45;;;15.80;76.10;;;;;;5075407;28;20024;-68
2021/06/01 05:15:21;;;;;;;2.83;1.23;;;16.10;74.70;;;;;;5075435;28;20112;-68
2021/06/01 05:17:46;;;;;;;4.13;1.40;;;16.40;73.30;;;;;;5072579;28;20054;-68
2021/06/01 05:20:12;;;;;;;6.50;1.40;;;16.80;71.70;;;;;;5041456;28;20075;-68
2021/06/01 05:22:38;;;;;;;3.92;1.85;;;17.00;70.70;;;;;;5073229;28;20032;-68
2021/06/01 05:25:04;;;;;;;5.75;1.35;;;17.20;68.80;;;;;;5069279;28;20028;-68
2021/06/01 05:27:30;;;;;;;2.92;1.55;;;17.30;67.40;;;;;;5075454;28;20056;-68
2021/06/01 05:30:01;;;;;;;3.13;1.83;;;17.30;66.90;;;;;;5072095;28;20071;-68
2021/06/01 05:35:06;;;;;;;4.70;1.40;;;17.40;66.50;;;;;;5064329;28;20033;-69
2021/06/01 05:37:35;;;;;;;5.05;1.50;;;17.50;66.30;;;;;;5063582;28;20024;-68
2021/06/01 05:40:03;;;;;;;3.70;1.88;;;17.70;65.10;;;;;;5075147;28;20482;-68
2021/06/01 05:42:29;;;;;;;5.63;1.73;;;18.00;64.70;;;;;;5073641;28;20441;-68
2021/06/01 05:44:54;;;;;;;3.15;1.40;;;18.10;64.20;;;;;;5073466;28;20052;-68
2021/06/01 05:47:20;;;;;;;3.38;1.48;;;18.30;63.30;;;;;;5069901;28;20482;-68
2021/06/01 05:49:45;;;;;;;3.33;1.33;;;18.30;62.70;;;;;;5066346;28;20036;-68
2021/06/01 05:52:11;;;;;;;5.20;2.08;;;18.30;61.90;;;;;;5075105;28;20074;-68
2021/06/01 05:54:38;;;;;;;3.85;1.90;;;18.30;61.60;;;;;;5075033;28;20029;-68
2021/06/01 05:57:04;;;;;;;5.18;2.03;;;18.40;61.40;;;;;;5069163;28;20079;-68
2021/06/01 05:59:30;;;;;;;3.25;1.70;;;18.40;61.00;;;;;;5054286;28;20461;-69
2021/06/01 06:01:55;;;;;;;3.25;1.38;;;18.40;61.70;;;;;;5075060;28;20040;-68
2021/06/01 06:04:21;;;;;;;5.47;1.85;;;18.40;60.70;;;;;;5075006;28;20024;-68
2021/06/01 06:06:46;;;;;;;8.38;1.17;;;18.50;59.80;;;;;;5075011;28;20055;-68
2021/06/01 06:09:13;;;;;;;2.55;1.00;;;18.50;60.00;;;;;;5056811;28;20024;-68
2021/06/01 06:11:38;;;;;;;4.40;1.35;;;18.50;59.70;;;;;;5073098;28;20482;-69
2021/06/01 06:14:04;;;;;;;3.80;1.05;;;18.60;60.10;;;;;;5056579;28;20103;-69
2021/06/01 06:16:39;;;;;;;4.50;1.13;;;18.70;59.30;;;;;;5074760;28;20031;-69
2021/06/01 06:19:05;;;;;;;4.05;1.60;;;18.80;58.80;;;;;;5074827;28;20138;-69
2021/06/01 06:21:31;;;;;;;4.10;1.13;;;18.80;58.60;;;;;;5073698;28;20044;-69
2021/06/01 06:23:56;;;;;;;3.42;1.25;;;18.90;58.40;;;;;;5073977;28;20113;-69
2021/06/01 06:26:22;;;;;;;4.60;1.33;;;18.90;58.80;;;;;;5072286;28;20182;-68
2021/06/01 06:28:48;;;;;;;3.63;1.25;;;19.00;58.90;;;;;;5073717;28;20032;-69
2021/06/01 06:31:14;;;;;;;6.65;1.00;;;19.10;58.50;;;;;;5074590;28;20098;-69
2021/06/01 06:33:40;;;;;;;3.35;0.90;;;19.10;57.80;;;;;;5074320;28;20074;-68
2021/06/01 06:36:06;;;;;;;2.80;0.93;;;19.20;57.30;;;;;;5069088;28;20123;-68
2021/06/01 06:38:32;;;;;;;4.95;1.13;;;19.30;57.20;;;;;;5073274;28;20107;-69
2021/06/01 06:43:35;;;;;;;3.40;1.10;;;19.40;56.20;;;;;;5071066;28;20028;-69
2021/06/01 06:46:02;;;;;;;2.92;1.25;;;19.50;56.20;;;;;;5072880;28;20024;-69
2021/06/01 06:48:28;;;;;;;3.17;1.23;;;19.50;55.90;;;;;;5066457;28;20505;-69
2021/06/01 06:50:53;;;;;;;3.28;1.27;;;19.60;55.50;;;;;;5069677;28;20103;-68
2021/06/01 06:53:19;;;;;;;2.10;0.85;;;19.60;55.20;;;;;;5072441;28;20032;-69
2021/06/01 06:55:44;;;;;;;5.05;1.13;;;19.70;55.60;;;;;;5074346;28;20035;-69
2021/06/01 06:58:10;;;;;;;3.20;0.82;;;19.80;55.70;;;;;;5073061;28;20029;-69
2021/06/01 07:00:36;;;;;;;4.05;1.17;;;19.90;55.50;;;;;;5068446;28;20028;-69
2021/06/01 07:03:01;;;;;;;3.83;1.02;;;19.90;54.60;;;;;;5073029;28;20020;-69
2021/06/01 07:05:27;;;;;;;3.92;1.08;;;20.00;54.30;;;;;;5073983;28;20386;-69
2021/06/01 07:07:53;;;;;;;5.75;1.30;;;20.10;54.50;;;;;;5073002;28;20028;-69
2021/06/01 07:10:21;;;;;;;3.33;1.20;;;20.10;54.50;;;;;;5072068;28;20359;-69
2021/06/01 07:12:47;;;;;;;4.40;1.35;;;20.20;55.00;;;;;;5073708;28;20432;-69
2021/06/01 07:15:22;;;;;;;6.90;1.63;;;20.30;54.50;;;;;;5072990;28;20021;-69
2021/06/01 07:17:52;;;;;;;2.88;0.88;;;20.40;54.00;;;;;;5073728;28;20021;-69
2021/06/01 07:20:18;;;;;;;5.32;1.10;;;20.50;53.20;;;;;;5071719;28;20115;-69
2021/06/01 07:22:43;;;;;;;5.63;0.80;;;20.60;53.30;;;;;;5073246;28;20095;-69
2021/06/01 07:25:10;;;;;;;3.97;0.93;;;20.60;52.70;;;;;;5073053;28;20556;-69
2021/06/01 07:27:35;;;;;;;2.50;1.13;;;20.70;53.10;;;;;;5037978;28;20534;-69
2021/06/01 07:30:01;;;;;;;2.92;0.80;;;20.80;52.50;;;;;;5062149;28;20099;-69
2021/06/01 07:32:27;;;;;;;2.10;0.80;;;20.80;52.30;;;;;;5072249;28;20020;-69
2021/06/01 07:34:52;;;;;;;3.42;1.02;;;20.80;52.10;;;;;;5069829;28;20048;-69
2021/06/01 07:37:18;;;;;;;3.63;1.10;;;20.90;52.80;;;;;;5072042;28;20049;-69
2021/06/01 07:39:43;;;;;;;3.08;0.90;;;21.00;52.20;;;;;;5072600;28;20028;-68
2021/06/01 07:42:10;;;;;;;3.28;0.85;;;21.10;51.60;;;;;;5072990;28;20021;-67
2021/06/01 07:44:36;;;;;;;2.25;1.05;;;21.20;52.10;;;;;;5054287;28;20043;-68
2021/06/01 07:47:02;;;;;;;3.67;1.05;;;21.30;51.80;;;;;;5055267;28;20500;-69
2021/06/01 07:49:28;;;;;;;4.53;0.90;;;21.30;51.70;;;;;;5072587;28;20024;-69
2021/06/01 07:51:54;;;;;;;2.10;0.70;;;21.40;52.20;;;;;;5073187;28;20044;-68
2021/06/01 07:54:22;;;;;;;3.78;0.82;;;21.50;51.80;;;;;;5072754;28;20052;-68
2021/06/01 07:56:48;;;;;;;2.28;0.85;;;21.60;51.80;;;;;;5072909;28;20029;-69
2021/06/01 07:59:14;;;;;;;2.00;0.90;;;21.80;51.70;;;;;;5071118;28;20074;-68
2021/06/01 08:01:43;;;;;;;1.50;0.70;;;21.80;51.90;;;;;;5053965;28;20024;-68
2021/06/01 08:04:09;;;;;;;3.90;1.17;;;21.90;50.90;;;;;;5053530;28;20021;-68
2021/06/01 08:06:37;;;;;;;2.65;0.95;;;21.90;50.90;;;;;;5063740;28;20074;-67
2021/06/01 08:09:04;;;;;;;8.07;0.98;;;22.00;51.90;;;;;;5068138;28;20100;-68
2021/06/01 08:11:30;;;;;;;3.75;1.10;;;22.10;51.50;;;;;;5061837;28;20029;-68
2021/06/01 08:13:55;;;;;;;3.60;1.30;;;22.10;50.90;;;;;;5068372;28;20566;-68
2021/06/01 08:16:21;;;;;;;4.00;0.93;;;22.20;50.30;;;;;;5068691;28;20033;-68
2021/06/01 08:24:16;;;;;;;4.63;1.20;;;22.30;50.00;;;;;;5079780;28;20024;-68
2021/06/01 08:26:41;;;;;;;2.47;1.00;;;22.30;50.30;;;;;;5079564;28;20104;-68
2021/06/01 08:29:08;;;;;;;4.93;1.40;;;22.40;51.40;;;;;;5079777;28;20459;-68
2021/06/01 08:31:34;;;;;;;4.32;1.10;;;22.50;51.80;;;;;;5067786;28;20398;-68
2021/06/01 08:33:59;;;;;;;2.08;0.98;;;22.50;50.70;;;;;;5073578;28;20028;-68
2021/06/01 08:36:26;;;;;;;3.90;0.82;;;22.60;51.00;;;;;;5078531;28;20064;-68
2021/06/01 08:38:52;;;;;;;3.67;1.00;;;22.80;50.70;;;;;;5079559;28;20036;-68
2021/06/01 08:41:17;;;;;;;3.20;0.93;;;22.80;49.60;;;;;;5079434;28;20023;-68
2021/06/01 08:43:43;;;;;;;3.47;0.77;;;22.90;48.60;;;;;;5079265;28;20016;-68
2021/06/01 08:46:10;;;;;;;1.67;0.68;;;22.90;48.30;;;;;;5078312;28;20025;-68
2021/06/01 08:48:37;;;;;;;1.80;0.65;;;23.00;47.60;;;;;;5075881;28;20021;-68
2021/06/01 08:51:03;;;;;;;2.25;0.85;;;23.10;46.50;;;;;;5069933;28;20466;-68
2021/06/01 08:53:29;;;;;;;3.45;0.70;;;23.10;46.10;;;;;;5074652;28;20063;-68
2021/06/01 08:55:55;;;;;;;2.83;0.70;;;23.20;46.60;;;;;;5067540;28;20147;-68
2021/06/01 08:58:22;;;;;;;1.38;0.65;;;23.20;45.60;;;;;;5079033;28;20032;-68
2021/06/01 09:00:49;;;;;;;1.98;0.70;;;23.20;45.20;;;;;;5066461;28;20024;-68
2021/06/01 09:03:22;;;;;;;2.17;0.75;;;23.30;45.50;;;;;;5069991;28;20051;-68
2021/06/01 09:22:36;;;;;;;2.47;0.60;;;23.60;44.30;;;;;;5072763;28;20071;-68
2021/06/01 09:25:21;;;;;;;1.05;0.50;;;23.70;44.60;;;;;;5055994;28;20074;-69
2021/06/01 09:27:55;;;;;;;2.28;0.95;;;23.80;43.70;;;;;;5068059;28;20037;-68
2021/06/01 09:30:39;;;;;;;2.50;0.80;;;23.80;42.90;;;;;;5070516;28;20035;-69
2021/06/01 09:33:28;;;;;;;1.60;0.63;;;23.80;44.00;;;;;;5053376;28;20360;-68
2021/06/01 09:35:56;;;;;;;2.10;0.63;;;23.90;42.80;;;;;;5071732;28;20512;-68
2021/06/01 09:38:23;;;;;;;2.25;0.80;;;23.90;41.80;;;;;;5058968;28;20033;-68
2021/06/01 09:41:05;;;;;;;3.45;0.80;;;23.90;41.90;;;;;;5070037;28;20047;-69
2021/06/01 09:43:31;;;;;;;2.15;0.50;;;24.00;42.20;;;;;;5075333;28;20016;-68
2021/06/01 09:45:57;;;;;;;3.90;0.60;;;24.10;42.50;;;;;;5075479;28;20107;-69
2021/06/01 09:48:25;;;;;;;6.82;0.70;;;24.20;42.90;;;;;;5054135;28;20064;-67
2021/06/01 09:50:59;;;;;;;2.47;0.70;;;24.20;41.30;;;;;;5071358;28;20038;-68
2021/06/01 09:55:51;;;;;;;2.35;0.60;;;24.30;41.70;;;;;;5074214;28;20439;-68
2021/06/01 09:58:32;;;;;;;2.65;0.70;;;24.40;42.00;;;;;;5067773;28;20086;-67
2021/06/01 10:01:00;;;;;;;2.10;0.65;;;24.50;41.60;;;;;;5055178;28;20021;-68
2021/06/01 10:03:35;;;;;;;2.95;0.60;;;24.50;41.40;;;;;;5043961;28;20033;-67
2021/06/01 10:06:00;;;;;;;2.42;0.60;;;24.50;40.60;;;;;;5070985;28;20025;-68
2021/06/01 10:08:27;;;;;;;1.67;0.60;;;24.60;42.10;;;;;;5062141;28;20041;-68
2021/06/01 10:10:58;;;;;;;2.45;0.70;;;24.70;42.60;;;;;;5074964;28;20029;-68
2021/06/01 10:13:27;;;;;;;3.70;0.60;;;24.80;42.00;;;;;;5048526;28;20116;-67
2021/06/01 10:15:55;;;;;;;3.33;0.70;;;24.80;42.90;;;;;;5054759;28;20032;-67
2021/06/01 10:18:21;;;;;;;1.50;0.70;;;24.90;41.20;;;;;;5062201;28;20028;-67
2021/06/01 10:20:49;;;;;;;1.88;0.80;;;24.90;41.50;;;;;;5054561;28;20052;-68
2021/06/01 10:23:20;;;;;;;1.52;0.80;;;24.80;40.20;;;;;;5064390;28;20499;-68
2021/06/01 10:25:47;;;;;;;2.47;0.80;;;24.70;40.10;;;;;;5066246;28;20027;-68
2021/06/01 10:28:12;;;;;;;2.08;0.82;;;24.70;41.10;;;;;;5063012;28;20474;-68
2021/06/01 10:30:40;;;;;;;1.73;0.70;;;24.70;41.60;;;;;;5064851;28;20038;-68
2021/06/01 10:33:08;;;;;;;3.90;0.80;;;24.80;40.80;;;;;;5072198;28;20024;-68
2021/06/01 10:35:39;;;;;;;3.90;0.88;;;24.80;41.60;;;;;;5056348;28;20525;-67
2021/06/01 10:52:03;;;;;;;2.38;0.88;;;25.40;42.10;;;;;;5059340;28;20116;-68
2021/06/01 10:54:45;;;;;;;4.25;1.10;;;25.50;41.80;;;;;;5057521;28;20099;-68
2021/06/01 10:57:14;;;;;;;2.80;0.80;;;25.50;42.40;;;;;;5036248;28;20036;-68
2021/06/01 11:02:14;;;;;;;3.17;1.48;;;25.30;42.60;;;;;;5061897;28;20052;-69
2021/06/01 11:04:58;;;;;;;2.53;1.00;;;25.20;42.00;;;;;;5071597;28;20486;-67
2021/06/01 11:07:38;;;;;;;3.42;0.90;;;25.10;41.50;;;;;;5072190;28;20028;-67
2021/06/01 11:10:04;;;;;;;2.88;0.88;;;25.00;42.60;;;;;;5069788;28;20020;-67
2021/06/01 11:12:35;;;;;;;4.70;0.95;;;25.10;42.80;;;;;;5051355;28;20036;-68
2021/06/01 11:15:26;;;;;;;2.33;0.85;;;25.10;41.80;;;;;;5072339;28;20343;-67
2021/06/01 11:17:52;;;;;;;1.38;0.65;;;25.10;41.80;;;;;;5069445;28;20024;-67
2021/06/01 11:20:29;;;;;;;1.38;0.60;;;25.00;41.10;;;;;;5068392;28;20352;-67
2021/06/01 11:33:37;;;;;;;2.05;0.57;;;25.10;41.00;;;;;;5060094;28;20036;-68
2021/06/01 11:36:12;;;;;;;3.53;0.73;;;24.90;40.00;;;;;;5055301;28;20131;-68
2021/06/01 11:38:49;;;;;;;1.40;0.70;;;24.80;41.20;;;;;;5069181;28;20036;-68
2021/06/01 11:43:52;;;;;;;2.50;0.70;;;24.70;40.40;;;;;;5072482;28;20021;-68
2021/06/01 11:51:24;;;;;;;4.70;0.82;;;24.80;40.50;;;;;;5072254;28;20025;-69
2021/06/01 11:54:06;;;;;;;4.50;1.10;;;24.90;39.80;;;;;;5071280;28;20020;-67
2021/06/01 12:02:04;;;;;;;1.77;0.50;;;24.70;39.40;;;;;;5071126;28;20525;-70
2021/06/01 12:04:56;;;;;;;1.98;0.80;;;24.70;39.50;;;;;;5055504;28;20391;-69
2021/06/01 12:13:34;;;;;;;2.42;0.70;;;24.90;39.60;;;;;;5071999;28;20063;-68
2021/06/01 12:18:50;;;;;;;2.25;0.90;;;24.80;40.10;;;;;;5069628;28;20033;-68
2021/06/01 12:21:30;;;;;;;1.88;0.80;;;24.80;39.90;;;;;;5062960;28;20136;-68
2021/06/01 12:23:59;;;;;;;1.80;0.60;;;24.80;39.30;;;;;;5062064;28;20063;-68
2021/06/01 12:32:09;;;;;;;2.33;0.98;;;25.10;41.00;;;;;;5072792;28;20047;-68
2021/06/01 12:43:08;;;;;;;2.42;0.80;;;25.40;39.50;;;;;;5061905;28;20501;-68
2021/06/01 12:45:50;;;;;;;2.90;0.70;;;25.50;38.20;;;;;;5052710;28;20075;-68
2021/06/01 13:22:50;;;;;;;3.00;0.77;;;26.20;36.30;;;;;;5070567;28;20040;-68
2021/06/01 13:39:54;;;;;;;3.17;0.75;;;26.40;35.80;;;;;;5074068;28;20543;-68
2021/06/01 13:56:05;;;;;;;1.58;0.70;;;26.90;36.20;;;;;;5074454;28;20028;-68
2021/06/01 15:04:30;;;;;;;2.08;0.73;;;28.20;34.00;;;;;;5070754;28;20044;-68
2021/06/01 15:10:07;;;;;;;1.08;0.50;;;28.70;34.70;;;;;;5070529;28;20094;-68
2021/06/01 15:31:34;;;;;;;0.80;0.50;;;30.50;33.10;;;;;;5064215;28;20119;-68
2021/06/01 15:47:53;;;;;;;3.05;0.60;;;32.10;30.60;;;;;;5069866;28;20063;-68
2021/06/01 15:50:26;;;;;;;2.97;0.60;;;32.20;31.10;;;;;;5069934;28;20497;-68
2021/06/01 16:15:40;;;;;;;2.35;0.50;;;33.50;29.70;;;;;;5016384;28;20041;-68
2021/06/01 16:42:30;;;;;;;1.50;0.60;;;33.60;28.90;;;;;;5068268;28;20081;-68
2021/06/01 17:04:34;;;;;;;1.23;0.45;;;33.70;28.50;;;;;;5068322;28;20039;-70
2021/06/01 17:07:10;;;;;;;1.88;0.50;;;34.10;28.80;;;;;;5062100;28;20016;-68
2021/06/01 17:11:01;;;;;;;3.70;0.60;;;34.20;28.30;;;;;;5066362;28;20482;-68
2021/06/01 17:12:47;;;;;;;3.10;0.60;;;34.00;28.30;;;;;;5071563;28;20130;-68
2021/06/01 17:15:15;;;;;;;4.35;0.60;;;34.10;28.40;;;;;;5070627;28;20046;-68
2021/06/01 17:17:52;;;;;;;2.25;0.57;;;34.10;28.30;;;;;;5075998;28;20029;-68
2021/06/01 17:31:01;;;;;;;1.98;0.70;;;33.10;28.70;;;;;;5075081;28;20143;-68
2021/06/01 17:36:13;;;;;;;1.00;0.50;;;32.70;28.90;;;;;;5072303;28;20094;-68
2021/06/01 17:38:39;;;;;;;2.13;0.60;;;32.70;29.00;;;;;;5063646;28;20083;-68
2021/06/01 17:41:11;;;;;;;2.50;0.60;;;32.70;28.90;;;;;;5072263;28;20036;-69
2021/06/01 17:43:42;;;;;;;2.75;0.70;;;32.50;28.80;;;;;;5069719;28;20036;-68
2021/06/01 17:46:11;;;;;;;1.40;0.70;;;32.30;29.00;;;;;;5052881;28;20032;-69
2021/06/01 17:48:56;;;;;;;3.83;0.70;;;32.20;29.00;;;;;;5075034;28;20029;-69
2021/06/01 17:51:28;;;;;;;2.88;0.70;;;31.80;28.90;;;;;;5070193;28;20025;-69
2021/06/01 17:53:59;;;;;;;1.77;0.73;;;31.70;29.10;;;;;;5069917;28;20043;-68
2021/06/01 17:56:28;;;;;;;1.85;0.50;;;30.80;29.80;;;;;;5068203;28;20028;-68
2021/06/01 17:58:56;;;;;;;2.10;0.40;;;29.60;30.30;;;;;;5069875;28;20028;-69
2021/06/01 18:01:24;;;;;;;3.30;0.52;;;28.40;31.10;;;;;;5074146;28;20138;-69
2021/06/01 18:04:04;;;;;;;2.67;0.65;;;27.50;32.00;;;;;;5072313;28;20094;-69
2021/06/01 18:07:10;;;;;;;2.85;0.77;;;26.80;33.00;;;;;;5072784;28;20059;-69
2021/06/01 18:09:47;;;;;;;4.20;0.60;;;26.30;33.60;;;;;;5070209;28;20057;-69
2021/06/01 18:12:38;;;;;;;1.80;0.63;;;25.80;34.40;;;;;;5070315;28;20029;-68
2021/06/01 18:51:20;;;;;;;1.63;0.70;;;24.10;38.10;;;;;;5016910;28;20040;-69
2021/06/01 19:50:28;;;;;;;1.10;0.60;;;21.40;45.20;;;;;;5062016;28;20054;-68
2021/06/01 19:52:56;;;;;;;4.68;0.70;;;21.30;45.00;;;;;;5070611;28;20016;-68
2021/06/01 19:55:24;;;;;;;2.38;0.60;;;21.10;45.50;;;;;;5064273;28;20127;-68
2021/06/01 19:57:52;;;;;;;4.80;0.70;;;21.00;45.50;;;;;;5050416;28;20112;-68
2021/06/01 20:00:19;;;;;;;2.00;0.70;;;20.80;45.90;;;;;;5053157;28;20028;-68
2021/06/01 20:02:45;;;;;;;4.13;0.70;;;20.70;46.50;;;;;;5069753;28;20025;-69
2021/06/01 20:05:14;;;;;;;1.77;0.60;;;20.60;47.80;;;;;;5067879;28;20033;-68
2021/06/01 20:07:40;;;;;;;5.03;0.77;;;20.50;47.90;;;;;;5062664;28;20463;-68
2021/06/01 20:10:09;;;;;;;3.95;0.60;;;20.30;48.50;;;;;;5064906;28;20029;-68